Pagina principale
METAR-TAF:

METAR-TAF

Aeroporti :

Aeroporto Internazionale di Larnaca

Larnaca, Cipro

latitudine: 34-53N, longitudine: 033-38E, altezza: 2 m

Osservazione

Il bollettino è stato emesso 26 minuti fa, alle 22:30 UTC
Vento 4 kt da nord/nord-ovest
Temperature 25°C
Umidità 65%
Pressione 1005 hPa
Visibilità 10 km o più
nessuna nube inferiore a 1500 m e nessun cumulonembo

METAR: LCLK 152230Z 34004KT CAVOK 25/18 Q1005 NOSIG

Ora: 01:56 (22:56 UTC)

Previsione

Il bollettino è stato emesso 5 ore e 26 minuti fa, alle 17:30 UTC
Previsione valida dal 15 alle 18 UTC al 16 alle 18 UTC
Vento 7 kt da ovest
Visibilità 10 km o più
Poco nuvoloso ad un'altezza di 3000 ft
Probabilità 30%
dal 15 alle 23 UTC al 16 alle 04 UTC
Visibilità: 5000 m
Nuvoloso ad un'altezza di 500 ft
foschia
Evoluzione graduale
dal 16 alle 08 UTC al 16 alle 11 UTC
Vento 18 kt da sud/sud-ovest

TAF: LCLK 151730Z 1518/1618 27007KT 9999 FEW030 PROB30 1523/1604 5000 BR BKN005 BECMG 1608/1611 21018KT

Osservazioni e previsioni meteorologiche di più di 4000 aeroporti (messaggi METAR e TAF).

Le stazioni disponibili sono rappresentate dai dischi gialli e rossi sulla carta.

Puntare il mouse per vedere il nome della stazione.

Clicca sopra per visualizzare le osservazioni e previsioni meteorologiche.

Per cambiare la mappa : fare clic sui pulsanti verdi con una croce nera per ingrandire, il pulsante verde con un trattino per diminuire, o sulla freccia verde per le mappe adiacenti.


METAR-TAF: